createdAt,value
2023-04-01T00:01:05.460Z,12.62
2023-04-01T00:03:34.371Z,12.33
2023-04-01T00:06:01.774Z,12.44
2023-04-01T00:08:28.696Z,12.41
2023-04-01T00:10:55.538Z,12.22
2023-04-01T00:13:22.314Z,12.11
2023-04-01T00:15:49.159Z,12.42
2023-04-01T00:18:15.943Z,12.79
2023-04-01T00:20:48.252Z,12.66
2023-04-01T00:23:15.510Z,12.43
2023-04-01T00:25:42.195Z,12.23
2023-04-01T00:28:08.881Z,12.29
2023-04-01T00:30:37.536Z,11.95
2023-04-01T00:33:04.490Z,12.28
2023-04-01T00:35:31.205Z,12.00
2023-04-01T00:37:58.305Z,12.12
2023-04-01T00:40:32.914Z,11.89
2023-04-01T00:42:59.431Z,11.37
2023-04-01T00:45:31.120Z,11.30
2023-04-01T00:48:01.133Z,11.15
2023-04-01T00:50:28.432Z,11.52
2023-04-01T00:52:54.946Z,11.23
2023-04-01T00:55:22.790Z,11.10
2023-04-01T00:57:50.734Z,10.92
2023-04-01T01:00:18.321Z,10.85
2023-04-01T01:02:47.386Z,10.54
2023-04-01T01:05:15.879Z,10.71
2023-04-01T01:08:16.119Z,10.78
2023-04-01T01:10:43.525Z,10.77
2023-04-01T01:13:27.009Z,10.77
2023-04-01T01:16:07.974Z,10.19
2023-04-01T01:18:50.574Z,10.68
2023-04-01T01:21:54.703Z,10.21
2023-04-01T01:24:32.639Z,10.46
2023-04-01T01:27:12.709Z,10.36
2023-04-01T01:30:04.019Z,10.28
2023-04-01T01:32:39.518Z,10.31
2023-04-01T01:35:50.892Z,10.43
2023-04-01T01:38:20.841Z,10.51
2023-04-01T01:40:52.785Z,10.19
2023-04-01T01:43:22.719Z,10.32
2023-04-01T01:45:52.866Z,10.35
2023-04-01T01:48:20.873Z,10.45
2023-04-01T01:50:48.718Z,9.84
2023-04-01T01:53:15.317Z,9.82
2023-04-01T01:55:44.692Z,9.95
2023-04-01T01:58:11.214Z,9.98
2023-04-01T02:00:38.083Z,9.30
2023-04-01T02:03:05.593Z,9.31
2023-04-01T02:05:32.876Z,9.01
2023-04-01T02:08:07.682Z,9.38
2023-04-01T02:10:37.165Z,9.01
2023-04-01T02:13:09.032Z,9.23
2023-04-01T02:15:39.839Z,8.69
2023-04-01T02:18:06.987Z,8.96
2023-04-01T02:20:33.639Z,9.04
2023-04-01T02:23:00.736Z,8.84
2023-04-01T02:25:35.444Z,8.74
2023-04-01T02:28:05.276Z,8.73
2023-04-01T02:30:33.478Z,8.53
2023-04-01T02:33:00.319Z,8.73
2023-04-01T02:35:27.407Z,8.45
2023-04-01T02:37:55.378Z,8.31
2023-04-01T02:40:22.266Z,8.38
2023-04-01T02:42:48.821Z,8.56
2023-04-01T02:45:15.805Z,8.22
2023-04-01T02:47:42.546Z,8.36
2023-04-01T02:50:09.871Z,8.39
2023-04-01T02:52:36.558Z,8.13
2023-04-01T02:55:03.911Z,8.02
2023-04-01T02:57:30.698Z,8.49
2023-04-01T02:59:57.295Z,8.23
2023-04-01T03:02:23.786Z,8.01
2023-04-01T03:04:50.351Z,8.27
2023-04-01T03:07:17.181Z,7.96
2023-04-01T03:09:43.691Z,7.90
2023-04-01T03:12:10.244Z,8.08
2023-04-01T03:14:36.766Z,8.21
2023-04-01T03:17:03.259Z,7.69
2023-04-01T03:19:29.898Z,7.84
2023-04-01T03:21:56.344Z,7.77
2023-04-01T03:24:22.893Z,7.57
2023-04-01T03:26:49.510Z,7.66
2023-04-01T03:29:17.004Z,7.73
2023-04-01T03:31:43.731Z,7.53
2023-04-01T03:34:10.665Z,7.70
2023-04-01T03:36:37.583Z,7.67
2023-04-01T03:39:04.807Z,7.47
2023-04-01T03:41:31.799Z,7.63
2023-04-01T03:43:58.339Z,7.48
2023-04-01T03:46:25.159Z,7.23
2023-04-01T03:48:51.719Z,7.10
2023-04-01T03:51:18.250Z,7.11
2023-04-01T03:53:44.788Z,7.22
2023-04-01T03:56:11.404Z,7.09
2023-04-01T03:58:38.116Z,7.22
2023-04-01T04:01:05.378Z,7.39
2023-04-01T04:03:32.377Z,7.10
2023-04-01T04:05:58.946Z,7.00
2023-04-01T04:08:25.506Z,7.13
2023-04-01T04:10:58.236Z,6.99
2023-04-01T04:13:24.694Z,7.16
2023-04-01T04:15:51.192Z,7.30
2023-04-01T04:18:17.703Z,7.29
2023-04-01T04:20:46.862Z,7.17
2023-04-01T04:23:13.308Z,7.10
2023-04-01T04:25:39.774Z,7.02
2023-04-01T04:28:06.279Z,6.97
2023-04-01T04:30:32.777Z,7.24
2023-04-01T04:32:59.252Z,7.31
2023-04-01T04:35:25.760Z,6.93
2023-04-01T04:37:52.213Z,7.07
2023-04-01T04:40:18.676Z,6.94
2023-04-01T04:42:45.575Z,6.61
2023-04-01T04:45:13.678Z,6.90
2023-04-01T04:47:40.331Z,6.44
2023-04-01T04:50:07.706Z,6.54
2023-04-01T04:52:34.159Z,6.65
2023-04-01T04:55:00.846Z,6.72
2023-04-01T04:57:27.397Z,6.67
2023-04-01T04:59:53.974Z,6.69
2023-04-01T05:02:20.601Z,6.64
2023-04-01T05:04:47.092Z,6.95
2023-04-01T05:07:13.576Z,6.67
2023-04-01T05:09:40.085Z,6.91
2023-04-01T05:12:06.675Z,6.69
2023-04-01T05:14:33.110Z,6.69
2023-04-01T05:16:59.703Z,6.83
2023-04-01T05:19:26.254Z,6.90
2023-04-01T05:21:53.929Z,6.51
2023-04-01T05:24:20.389Z,6.60
2023-04-01T05:26:46.995Z,6.71
2023-04-01T05:29:13.509Z,6.92
2023-04-01T05:31:40.053Z,6.63
2023-04-01T05:34:06.537Z,6.30
2023-04-01T05:36:33.052Z,6.53
2023-04-01T05:38:59.496Z,6.61
2023-04-01T05:41:26.166Z,6.48
2023-04-01T05:43:52.591Z,6.43
2023-04-01T05:46:19.097Z,6.94
2023-04-01T05:48:45.613Z,6.25
2023-04-01T05:51:15.895Z,6.41
2023-04-01T05:53:43.054Z,6.27
2023-04-01T05:56:10.581Z,6.62
2023-04-01T05:58:37.864Z,6.63
2023-04-01T06:01:12.737Z,6.43
2023-04-01T06:03:42.479Z,6.17
2023-04-01T06:06:30.439Z,6.19
2023-04-01T06:08:59.168Z,6.56
2023-04-01T06:11:52.533Z,6.73
2023-04-01T06:14:32.083Z,6.32
2023-04-01T06:17:11.461Z,6.60
2023-04-01T06:20:06.364Z,6.71
2023-04-01T06:22:48.233Z,6.25
2023-04-01T06:25:44.002Z,6.61
2023-04-01T06:28:47.562Z,6.63
2023-04-01T06:31:26.419Z,6.61
2023-04-01T06:33:58.871Z,6.32
2023-04-01T06:36:48.547Z,6.49
2023-04-01T06:39:38.440Z,6.60
2023-04-01T06:42:15.325Z,6.49
2023-04-01T06:44:51.218Z,6.35
2023-04-01T06:47:52.590Z,6.43
2023-04-01T06:50:26.404Z,6.54
2023-04-01T06:53:23.283Z,6.94
2023-04-01T06:56:20.055Z,6.27
2023-04-01T06:58:52.712Z,6.47
2023-04-01T07:01:31.050Z,6.37
2023-04-01T07:04:04.895Z,6.11
2023-04-01T07:06:42.527Z,6.31
2023-04-01T07:09:17.206Z,5.86
2023-04-01T07:11:44.315Z,6.35
2023-04-01T07:14:33.625Z,6.53
2023-04-01T07:17:10.023Z,6.94
2023-04-01T07:19:48.886Z,6.32
2023-04-01T07:22:27.365Z,6.47
2023-04-01T07:24:54.977Z,6.47
2023-04-01T07:27:21.614Z,6.12
2023-04-01T07:29:48.433Z,6.31
2023-04-01T07:32:21.608Z,6.47
2023-04-01T07:35:25.677Z,6.57
2023-04-01T07:38:12.473Z,6.43
2023-04-01T07:40:38.916Z,6.23
2023-04-01T07:43:19.971Z,6.58
2023-04-01T07:45:56.676Z,6.42
2023-04-01T07:48:49.505Z,6.85
2023-04-01T07:51:18.896Z,6.67
2023-04-01T07:54:06.933Z,6.83
2023-04-01T07:56:42.531Z,6.97
2023-04-01T07:59:35.244Z,6.58
2023-04-01T08:02:06.430Z,6.97
2023-04-01T08:04:43.149Z,6.63
2023-04-01T08:07:26.222Z,6.40
2023-04-01T08:09:57.638Z,6.84
2023-04-01T08:12:46.955Z,6.64
2023-04-01T08:15:22.392Z,6.68
2023-04-01T08:18:06.090Z,6.93
2023-04-01T08:20:38.398Z,7.11
2023-04-01T08:23:12.762Z,6.63
2023-04-01T08:25:53.820Z,6.46
2023-04-01T08:28:40.620Z,6.86
2023-04-01T08:31:11.883Z,6.38
2023-04-01T08:33:39.086Z,7.04
2023-04-01T08:36:16.864Z,6.76
2023-04-01T08:39:05.842Z,6.57
2023-04-01T08:41:47.495Z,6.76
2023-04-01T08:44:28.548Z,6.50
2023-04-01T08:47:13.686Z,6.81
2023-04-01T08:49:43.270Z,6.82
2023-04-01T08:52:22.636Z,6.51
2023-04-01T08:55:14.549Z,6.28
2023-04-01T08:57:48.038Z,6.46
2023-04-01T09:00:47.980Z,6.79
2023-04-01T09:03:37.799Z,6.54
2023-04-01T09:06:32.202Z,6.44
2023-04-01T09:09:18.550Z,7.06
2023-04-01T09:12:04.592Z,6.74
2023-04-01T09:14:35.285Z,6.65
2023-04-01T09:17:15.758Z,6.85
2023-04-01T09:19:58.516Z,6.81
2023-04-01T09:22:34.816Z,6.99
2023-04-01T09:25:32.185Z,6.82
2023-04-01T09:28:09.884Z,6.99
2023-04-01T09:30:58.315Z,6.78
2023-04-01T09:33:52.883Z,6.85
2023-04-01T09:36:22.721Z,7.15
2023-04-01T09:38:55.294Z,7.22
2023-04-01T09:41:43.307Z,6.65
2023-04-01T09:44:21.338Z,6.39
2023-04-01T09:47:25.500Z,6.43
2023-04-01T09:50:07.137Z,6.20
2023-04-01T09:52:48.348Z,6.45
2023-04-01T09:55:51.868Z,6.58
2023-04-01T09:58:51.767Z,6.58
2023-04-01T10:01:37.281Z,6.54
2023-04-01T10:04:24.948Z,6.64
2023-04-01T10:06:52.353Z,6.83
2023-04-01T10:10:10.102Z,6.28
2023-04-01T10:13:01.361Z,6.41
2023-04-01T10:16:05.357Z,6.15
2023-04-01T10:19:16.920Z,6.55
2023-04-01T10:22:10.933Z,5.91
2023-04-01T10:25:00.335Z,6.21
2023-04-01T10:27:36.151Z,5.84
2023-04-01T10:30:56.854Z,5.88
2023-04-01T10:34:14.541Z,6.15
2023-04-01T10:36:54.908Z,6.74
2023-04-01T10:39:36.569Z,6.88
2023-04-01T10:42:21.939Z,6.38
2023-04-01T10:45:03.576Z,6.11
2023-04-01T10:47:57.994Z,6.03
2023-04-01T10:50:43.236Z,5.83
2023-04-01T10:53:24.028Z,5.75
2023-04-01T10:56:10.443Z,6.14
2023-04-01T10:58:52.266Z,6.22
2023-04-01T11:01:21.509Z,6.12
2023-04-01T11:04:15.737Z,5.91
2023-04-01T11:07:10.776Z,6.06
2023-04-01T11:10:15.669Z,6.26
2023-04-01T11:13:03.922Z,6.40
2023-04-01T11:15:54.138Z,5.56
2023-04-01T11:18:49.757Z,5.80
2023-04-01T11:21:41.386Z,5.92
2023-04-01T11:24:45.878Z,6.02
2023-04-01T11:27:46.474Z,6.22
2023-04-01T11:30:35.478Z,5.96
2023-04-01T11:33:06.193Z,5.62
2023-04-01T11:35:44.835Z,6.10
2023-04-01T11:38:33.109Z,5.87
2023-04-01T11:41:26.486Z,5.99
2023-04-01T11:44:19.234Z,5.84
2023-04-01T11:47:23.349Z,5.97
2023-04-01T11:50:15.477Z,5.89
2023-04-01T11:53:03.364Z,5.99
2023-04-01T11:55:50.474Z,6.25
2023-04-01T11:58:48.872Z,6.02
2023-04-01T12:01:27.944Z,6.06
2023-04-01T12:04:15.910Z,5.96
2023-04-01T12:07:07.430Z,5.48
2023-04-01T12:09:57.686Z,5.72
2023-04-01T12:12:54.106Z,5.60
2023-04-01T12:15:42.001Z,5.64
2023-04-01T12:18:18.379Z,5.88
2023-04-01T12:20:57.667Z,5.55
2023-04-01T12:24:03.371Z,5.68
2023-04-01T12:27:07.404Z,5.84
2023-04-01T12:29:51.522Z,5.60
2023-04-01T12:32:48.285Z,5.68
2023-04-01T12:35:25.829Z,5.82
2023-04-01T12:37:59.158Z,5.92
2023-04-01T12:40:33.013Z,5.72
2023-04-01T12:43:16.586Z,5.52
2023-04-01T12:45:51.975Z,5.73
2023-04-01T12:48:21.466Z,5.44
2023-04-01T12:50:54.163Z,5.55
2023-04-01T12:53:27.406Z,5.24
2023-04-01T12:55:53.983Z,5.79
2023-04-01T12:59:01.028Z,6.00
2023-04-01T13:01:53.036Z,5.69
2023-04-01T13:04:56.854Z,5.86
2023-04-01T13:07:32.546Z,5.63
2023-04-01T13:10:37.232Z,5.87
2023-04-01T13:13:04.421Z,5.48
2023-04-01T13:15:33.829Z,5.80
2023-04-01T13:18:14.277Z,5.45
2023-04-01T13:20:45.813Z,5.41
2023-04-01T13:23:34.272Z,5.45
2023-04-01T13:26:20.119Z,5.43
2023-04-01T13:29:27.173Z,5.46
2023-04-01T13:32:43.272Z,5.95
2023-04-01T13:35:19.625Z,5.42
2023-04-01T13:37:53.930Z,5.52
2023-04-01T13:40:29.922Z,5.76
2023-04-01T13:43:01.326Z,5.86
2023-04-01T13:45:44.309Z,5.79
2023-04-01T13:48:29.616Z,5.52
2023-04-01T13:51:23.911Z,5.39
2023-04-01T13:54:05.474Z,5.93
2023-04-01T13:56:34.922Z,5.72
2023-04-01T13:59:07.857Z,5.57
2023-04-01T14:01:51.221Z,5.61
2023-04-01T14:04:49.281Z,5.49
2023-04-01T14:07:43.980Z,5.91
2023-04-01T14:10:36.651Z,5.70
2023-04-01T14:13:15.483Z,5.86
2023-04-01T14:15:57.991Z,5.96
2023-04-01T14:18:42.681Z,6.07
2023-04-01T14:21:21.180Z,5.84
2023-04-01T14:23:56.230Z,5.78
2023-04-01T14:26:43.095Z,6.25
2023-04-01T14:29:18.596Z,5.65
2023-04-01T14:32:07.889Z,5.49
2023-04-01T14:34:53.149Z,5.88
2023-04-01T14:37:50.085Z,5.93
2023-04-01T14:40:19.849Z,5.40
2023-04-01T14:43:14.242Z,5.60
2023-04-01T14:45:56.295Z,5.24
2023-04-01T14:48:35.312Z,5.41
2023-04-01T14:51:30.772Z,5.22
2023-04-01T14:54:17.948Z,5.82
2023-04-01T14:56:48.637Z,5.22
2023-04-01T14:59:21.525Z,5.71
2023-04-01T15:01:59.862Z,5.72
2023-04-01T15:04:42.448Z,5.41
2023-04-01T15:07:46.807Z,5.37
2023-04-01T15:10:41.130Z,5.17
2023-04-01T15:13:15.291Z,5.29
2023-04-01T15:16:09.727Z,5.27
2023-04-01T15:19:01.005Z,5.78
2023-04-01T15:21:39.010Z,5.35
2023-04-01T15:24:09.052Z,5.37
2023-04-01T15:27:00.392Z,5.22
2023-04-01T15:29:42.229Z,5.44
2023-04-01T15:32:21.080Z,5.18
2023-04-01T15:34:59.431Z,4.94
2023-04-01T15:37:41.201Z,5.20
2023-04-01T15:40:19.012Z,5.46
2023-04-01T15:43:07.478Z,5.24
2023-04-01T15:45:47.109Z,5.49
2023-04-01T15:48:46.176Z,5.15
2023-04-01T15:51:23.386Z,5.29
2023-04-01T15:54:26.748Z,5.07
2023-04-01T15:57:11.409Z,5.10
2023-04-01T15:59:43.882Z,5.22
2023-04-01T16:03:01.691Z,5.03
2023-04-01T16:05:53.904Z,5.37
2023-04-01T16:08:41.739Z,5.05
2023-04-01T16:11:37.593Z,5.20
2023-04-01T16:14:48.048Z,4.86
2023-04-01T16:17:35.969Z,5.01
2023-04-01T16:20:43.302Z,5.21
2023-04-01T16:23:34.638Z,4.94
2023-04-01T16:26:19.311Z,4.88
2023-04-01T16:29:05.511Z,5.05
2023-04-01T16:31:51.912Z,4.94
2023-04-01T16:34:22.505Z,4.29
2023-04-01T16:36:53.963Z,4.94
2023-04-01T16:40:08.606Z,4.83
2023-04-01T16:42:54.393Z,5.08
2023-04-01T16:45:30.101Z,4.44
2023-04-01T16:48:01.337Z,4.68
2023-04-01T16:50:50.140Z,4.72
2023-04-01T16:53:22.830Z,5.06
2023-04-01T16:56:01.629Z,4.72
2023-04-01T16:58:36.220Z,4.62
2023-04-01T17:01:13.842Z,4.63
2023-04-01T17:03:53.470Z,4.54
2023-04-01T17:06:32.450Z,4.44
2023-04-01T17:09:46.750Z,4.57
2023-04-01T17:12:32.239Z,4.25
2023-04-01T17:15:35.685Z,4.48
2023-04-01T17:18:14.533Z,4.73
2023-04-01T17:20:41.121Z,4.09
2023-04-01T17:23:37.169Z,4.25
2023-04-01T17:26:31.658Z,4.73
2023-04-01T17:29:16.203Z,4.65
2023-04-01T17:32:08.891Z,4.66
2023-04-01T17:34:47.720Z,4.44
2023-04-01T17:37:32.970Z,4.15
2023-04-01T17:40:02.393Z,4.24
2023-04-01T17:42:37.918Z,4.21
2023-04-01T17:45:12.180Z,4.37
2023-04-01T17:47:42.945Z,3.81
2023-04-01T17:50:29.331Z,3.88
2023-04-01T17:53:20.697Z,4.32
2023-04-01T17:56:09.478Z,4.06
2023-04-01T17:58:47.314Z,3.76
2023-04-01T18:01:25.550Z,3.71
2023-04-01T18:03:57.924Z,3.75
2023-04-01T18:06:24.690Z,4.01
2023-04-01T18:09:00.968Z,3.81
2023-04-01T18:11:42.488Z,3.81
2023-04-01T18:14:42.883Z,3.77
2023-04-01T18:17:43.904Z,3.49
2023-04-01T18:20:19.780Z,4.04
2023-04-01T18:22:58.542Z,3.77
2023-04-01T18:25:31.333Z,3.82
2023-04-01T18:28:07.179Z,3.65
2023-04-01T18:30:35.809Z,3.75
2023-04-01T18:33:19.577Z,3.69
2023-04-01T18:35:54.134Z,3.46
2023-04-01T18:38:35.520Z,3.60
2023-04-01T18:41:15.436Z,3.62
2023-04-01T18:43:57.321Z,3.78
2023-04-01T18:46:35.220Z,3.46
2023-04-01T18:49:09.421Z,3.49
2023-04-01T18:51:35.963Z,3.84
2023-04-01T18:54:15.902Z,3.73
2023-04-01T18:56:44.616Z,3.53
2023-04-01T18:59:20.529Z,3.51
2023-04-01T19:02:00.419Z,3.58
2023-04-01T19:04:58.334Z,3.61
2023-04-01T19:07:41.647Z,3.78
2023-04-01T19:10:33.350Z,3.21
2023-04-01T19:13:22.160Z,3.53
2023-04-01T19:15:48.698Z,3.43
2023-04-01T19:18:42.761Z,3.64
2023-04-01T19:21:15.401Z,3.43
2023-04-01T19:24:19.729Z,3.71
2023-04-01T19:27:00.383Z,3.56
2023-04-01T19:29:26.914Z,3.43
2023-04-01T19:31:59.468Z,3.34
2023-04-01T19:34:35.327Z,3.63
2023-04-01T19:37:23.571Z,3.33
2023-04-01T19:40:01.275Z,3.31
2023-04-01T19:42:43.125Z,3.51
2023-04-01T19:45:54.245Z,3.32
2023-04-01T19:48:39.613Z,3.41
2023-04-01T19:51:14.676Z,3.40
2023-04-01T19:53:59.539Z,3.29
2023-04-01T19:56:34.721Z,3.24
2023-04-01T19:59:20.025Z,3.21
2023-04-01T20:01:51.381Z,3.65
2023-04-01T20:04:26.042Z,3.26
2023-04-01T20:07:02.315Z,3.82
2023-04-01T20:09:47.456Z,3.46
2023-04-01T20:12:29.040Z,3.60
2023-04-01T20:14:58.366Z,3.55
2023-04-01T20:17:45.671Z,3.61
2023-04-01T20:20:12.123Z,3.42
2023-04-01T20:22:44.642Z,3.58
2023-04-01T20:25:22.167Z,3.44
2023-04-01T20:27:53.113Z,3.44
2023-04-01T20:30:35.923Z,3.75
2023-04-01T20:33:26.327Z,3.69
2023-04-01T20:36:21.517Z,3.55
2023-04-01T20:39:03.238Z,3.24
2023-04-01T20:42:00.718Z,3.50
2023-04-01T20:44:46.597Z,3.42
2023-04-01T20:47:50.773Z,3.32
2023-04-01T20:50:31.795Z,3.39
2023-04-01T20:53:06.484Z,3.29
2023-04-01T20:55:48.604Z,3.43
2023-04-01T20:58:50.485Z,3.46
2023-04-01T21:01:43.512Z,3.46
2023-04-01T21:04:42.301Z,3.11
2023-04-01T21:07:33.550Z,3.32
2023-04-01T21:10:09.082Z,3.45
2023-04-01T21:12:55.260Z,3.39
2023-04-01T21:15:34.766Z,3.30
2023-04-01T21:18:18.141Z,3.19
2023-04-01T21:20:48.375Z,2.90
2023-04-01T21:23:21.253Z,3.08
2023-04-01T21:25:51.730Z,3.41
2023-04-01T21:28:34.539Z,2.99
2023-04-01T21:31:12.420Z,2.97
2023-04-01T21:33:50.386Z,3.24
2023-04-01T21:36:26.357Z,3.20
2023-04-01T21:39:12.290Z,3.14
2023-04-01T21:41:54.337Z,3.10
2023-04-01T21:44:42.232Z,3.20
2023-04-01T21:47:26.538Z,3.23
2023-04-01T21:50:20.657Z,3.13
2023-04-01T21:52:57.837Z,3.10
2023-04-01T21:55:24.260Z,3.04
2023-04-01T21:58:03.001Z,3.14
2023-04-01T22:01:21.882Z,2.88
2023-04-01T22:03:48.428Z,3.19
2023-04-01T22:06:28.072Z,2.80
2023-04-01T22:09:12.156Z,3.12
2023-04-01T22:11:46.096Z,2.98
2023-04-01T22:15:02.421Z,3.11
2023-04-01T22:17:34.307Z,2.82
2023-04-01T22:20:15.633Z,3.12
2023-04-01T22:22:57.865Z,3.07
2023-04-01T22:25:39.655Z,2.85
2023-04-01T22:28:10.232Z,2.88
2023-04-01T22:30:49.878Z,3.00
2023-04-01T22:33:40.868Z,2.87
2023-04-01T22:36:34.723Z,3.00
2023-04-01T22:39:23.721Z,2.78
2023-04-01T22:42:16.808Z,2.85
2023-04-01T22:45:01.930Z,2.83
2023-04-01T22:47:31.282Z,3.01
2023-04-01T22:50:03.342Z,3.23
2023-04-01T22:52:35.635Z,2.95
2023-04-01T22:55:25.830Z,3.22
2023-04-01T22:58:02.758Z,2.90
2023-04-01T23:00:55.736Z,3.10
2023-04-01T23:03:31.789Z,3.15
2023-04-01T23:06:00.560Z,3.36
2023-04-01T23:08:42.692Z,2.65
2023-04-01T23:11:13.699Z,2.90
2023-04-01T23:13:46.563Z,3.20
2023-04-01T23:16:13.757Z,3.06
2023-04-01T23:18:53.315Z,3.02
2023-04-01T23:21:24.504Z,2.91
2023-04-01T23:24:03.577Z,3.19
2023-04-01T23:27:04.278Z,3.10
2023-04-01T23:29:31.136Z,3.11
2023-04-01T23:32:01.902Z,3.27
2023-04-01T23:34:33.796Z,3.27
2023-04-01T23:37:05.802Z,3.13
2023-04-01T23:39:39.387Z,3.19
2023-04-01T23:42:13.903Z,3.03
2023-04-01T23:44:41.039Z,3.00
2023-04-01T23:47:10.149Z,3.09
2023-04-01T23:49:48.932Z,3.28
2023-04-01T23:52:25.364Z,3.21
2023-04-01T23:55:20.870Z,2.77
2023-04-01T23:58:23.180Z,3.26
